メインページ
METAR-TAF:

METAR-TAF

空港 :

ダラス・フォートワース国際空港

ダラス / フォートワース, テキサス州, アメリカ合衆国

緯度: 32-53-49N, 経度: 097-01-19W, 海抜: 183m

現時点の気象観測

当レポートは50分前の08:53(UTC)に作成
の風 13kt
気温 24°C
湿度 74%
気圧 1013 hPa
視程: 16.1km
高度17000ftの雲はほとんどない
高度24000ftの曇り

METAR: KDFW 200853Z 17013KT 10SM FEW170 OVC240 24/19 A2991 RMK AO2 SLP119 FRQ LTGCGIC DSNT NW CB DSNT NW MOV NE T02440194 58005 $

時間: 04:43 (09:43 UTC)

予報

当レポートは1時間10分前の08:33(UTC)に作成
予報は20日の 09時(UTC)から 21日の 12時(UTC)まで有効
南/南東の風 15kt
視程: 10km
高度20000ftの千切れ雲あり
20日の 1000時(UTC)から
南/南東の風 15kt
視程: 10km
高度4000ftの千切れ雲あり, 積乱雲.
近辺で激しい雷雨
20日の 1100時(UTC)から
北/北西の風 15kt
視程: 10km
高度4000ftの千切れ雲あり, 積乱雲.
近辺で激しい雷雨
20日の 11時(UTC)から 20日の 15時(UTC)まで一時的に
視程: 8.0km
高度2500ftの千切れ雲あり, 積乱雲.
激しい雷雨, 小雨
20日の 1600時(UTC)から
南/南東の風 8kt
視程: 10km
高度5000ftの千切れ雲あり, 積乱雲.
高度15000ftの千切れ雲あり
近辺で激しい雷雨
20日の 1800時(UTC)から
の風 8kt
視程: 10km
高度4000ftの雲は散在している
高度15000ftの雲は散在している
21日の 0000時(UTC)から
南東の風 8kt
視程: 10km
高度15000ftの千切れ雲あり

TAF: KDFW 200833Z 2009/2112 15015KT P6SM BKN200 FM201000 15015KT P6SM VCTS BKN040CB FM201100 33015KT P6SM VCTS BKN040CB TEMPO 2011/2015 5SM -TSRA BKN025CB FM201600 15008KT P6SM VCTS BKN050CB BKN150 FM201800 17008KT P6SM SCT040 SCT150 FM210000 13008KT P6SM BKN150

4,000以上の空港の気象観測と天気予報(METAR報とTAF報)

利用可能な観測所は地図上に黄色い丸と赤い丸で示す。

丸の上にカーソルを重ねると観測所名を参照できる。

次にクリックすると気象観測と天気予報を参照できる。

マップの切り替え:黒色「×」印の緑ボタンをクリックして拡大、「-」印の緑ボタンをクリックして縮小、緑色の三角印をクリックして隣りの地図に切り替え


METAR-TAF: